Time;durP1;ratioP1;P1;durP2;ratioP2;P2;SDS_P1;SDS_P2;PMS_P1;PMS_P2;Temp;Humidity;BMP_temperature;BMP_pressure;BME280_temperature;BME280_humidity;BME280_pressure;Samples;Min_cycle;Max_cycle;Signal;HPM_P1;HPM_P2
2023/08/06 00:01:14;;;;;;;12.52;10.25;;;14.20;99.90;;;;;;4892662;29;20095;-62
2023/08/06 00:03:40;;;;;;;11.63;10.30;;;14.20;99.90;;;;;;4893794;29;20056;-62
2023/08/06 00:06:06;;;;;;;13.50;10.30;;;14.30;99.90;;;;;;4894862;29;20524;-62
2023/08/06 00:08:32;;;;;;;11.85;10.50;;;14.20;99.90;;;;;;4894350;29;20123;-61
2023/08/06 00:10:57;;;;;;;12.52;10.60;;;14.20;99.90;;;;;;4894979;29;20057;-62
2023/08/06 00:13:23;;;;;;;13.55;11.02;;;14.30;99.90;;;;;;4894652;29;20076;-62
2023/08/06 00:15:48;;;;;;;12.80;10.80;;;14.40;99.90;;;;;;4894705;29;20442;-62
2023/08/06 00:18:14;;;;;;;11.90;10.70;;;14.50;99.90;;;;;;4893675;29;20041;-62
2023/08/06 00:20:41;;;;;;;12.93;11.43;;;14.20;99.90;;;;;;4894510;29;20045;-62
2023/08/06 00:23:07;;;;;;;11.93;10.65;;;14.20;99.90;;;;;;4894599;29;20407;-59
2023/08/06 00:25:33;;;;;;;14.18;11.55;;;14.20;99.90;;;;;;4894478;29;20134;-61
2023/08/06 00:27:58;;;;;;;13.05;11.63;;;14.30;99.90;;;;;;4894536;29;20108;-62
2023/08/06 00:30:24;;;;;;;12.50;11.25;;;14.40;99.90;;;;;;4894176;29;20424;-62
2023/08/06 00:32:50;;;;;;;12.63;11.15;;;14.20;99.90;;;;;;4893308;29;20041;-62
2023/08/06 00:35:16;;;;;;;12.73;11.43;;;14.20;99.90;;;;;;4893953;29;20558;-62
2023/08/06 00:37:41;;;;;;;13.57;11.82;;;14.20;99.90;;;;;;4894147;29;20059;-62
2023/08/06 00:40:08;;;;;;;14.85;11.52;;;14.30;99.90;;;;;;4893818;29;20056;-61
2023/08/06 00:42:34;;;;;;;14.02;11.45;;;14.30;99.90;;;;;;4894067;29;20058;-61
2023/08/06 00:45:00;;;;;;;12.88;11.60;;;14.20;99.90;;;;;;4894328;29;20088;-61
2023/08/06 00:47:26;;;;;;;12.65;11.32;;;14.20;99.90;;;;;;4892767;29;20048;-61
2023/08/06 00:49:52;;;;;;;13.43;12.13;;;14.20;99.90;;;;;;4894422;29;20053;-62
2023/08/06 00:52:18;;;;;;;14.98;11.60;;;14.20;99.90;;;;;;4893763;29;20044;-62
2023/08/06 00:54:43;;;;;;;16.73;12.18;;;14.20;99.90;;;;;;4893960;29;20165;-59
2023/08/06 00:57:09;;;;;;;14.23;12.68;;;14.20;99.90;;;;;;4893673;29;20048;-62
2023/08/06 00:59:35;;;;;;;15.07;13.48;;;14.40;99.90;;;;;;4893595;29;20100;-62
2023/08/06 01:02:01;;;;;;;14.40;12.82;;;14.20;99.90;;;;;;4907724;29;20420;-62
2023/08/06 01:04:27;;;;;;;15.45;12.85;;;14.20;99.90;;;;;;4893256;29;20117;-62
2023/08/06 01:07:21;;;;;;;14.70;13.27;;;14.20;99.90;;;;;;4893978;29;20052;-62
2023/08/06 01:10:19;;;;;;;14.13;12.67;;;14.20;99.90;;;;;;4891484;29;20080;-63
2023/08/06 01:13:12;;;;;;;16.25;13.63;;;14.20;99.90;;;;;;4906725;29;20053;-63
2023/08/06 01:15:51;;;;;;;16.08;13.27;;;14.20;99.90;;;;;;4893468;29;20112;-62
2023/08/06 01:18:17;;;;;;;15.38;13.48;;;14.20;99.90;;;;;;4882649;29;20052;-62
2023/08/06 01:20:42;;;;;;;16.23;13.60;;;14.20;99.90;;;;;;4887068;29;20049;-62
2023/08/06 01:23:08;;;;;;;14.95;13.00;;;14.20;99.90;;;;;;4893190;29;20048;-62
2023/08/06 01:25:39;;;;;;;15.75;13.10;;;14.20;99.90;;;;;;4893023;29;20040;-62
2023/08/06 01:28:15;;;;;;;15.25;13.73;;;14.20;99.90;;;;;;4888247;29;20077;-60
2023/08/06 01:30:42;;;;;;;14.63;13.23;;;14.20;99.90;;;;;;4874429;29;20056;-62
2023/08/06 01:33:14;;;;;;;17.08;13.10;;;14.30;99.90;;;;;;4873172;29;20045;-62
2023/08/06 01:35:42;;;;;;;13.98;12.55;;;14.30;99.90;;;;;;4874025;29;20068;-63
2023/08/06 01:38:07;;;;;;;14.77;13.30;;;14.30;99.90;;;;;;4874253;29;20053;-62
2023/08/06 01:40:34;;;;;;;15.93;14.20;;;14.30;99.90;;;;;;4874072;29;20041;-62
2023/08/06 01:42:59;;;;;;;16.92;13.52;;;14.20;99.90;;;;;;4874215;29;20053;-61
2023/08/06 01:45:25;;;;;;;14.43;12.93;;;14.40;99.90;;;;;;4874593;29;20044;-63
2023/08/06 01:47:50;;;;;;;15.13;13.50;;;14.20;99.90;;;;;;4871872;29;20100;-61
2023/08/06 01:50:16;;;;;;;15.80;13.38;;;14.20;99.90;;;;;;4874316;29;20401;-62
2023/08/06 01:52:42;;;;;;;20.35;13.20;;;14.20;99.90;;;;;;4873993;29;20088;-62
2023/08/06 01:55:07;;;;;;;13.80;12.18;;;14.20;99.90;;;;;;4873662;29;20495;-60
2023/08/06 01:57:33;;;;;;;13.98;12.35;;;14.20;99.90;;;;;;4873962;29;20113;-60
2023/08/06 01:59:59;;;;;;;14.18;12.60;;;14.20;99.90;;;;;;4874053;29;20493;-63
2023/08/06 02:02:24;;;;;;;16.25;12.82;;;14.20;99.90;;;;;;4873227;29;20041;-58
2023/08/06 02:04:50;;;;;;;14.05;12.48;;;14.20;99.90;;;;;;4872658;29;20072;-62
2023/08/06 02:07:15;;;;;;;13.88;12.40;;;14.20;99.90;;;;;;4889182;29;20063;-62
2023/08/06 02:09:41;;;;;;;15.70;12.50;;;14.20;99.90;;;;;;4887569;29;20308;-59
2023/08/06 02:12:07;;;;;;;13.52;11.73;;;14.20;99.90;;;;;;4889771;29;20064;-61
2023/08/06 02:14:33;;;;;;;12.93;11.68;;;14.30;99.90;;;;;;4891125;29;20037;-61
2023/08/06 02:16:58;;;;;;;12.82;11.52;;;14.40;99.90;;;;;;4889275;29;20057;-61
2023/08/06 02:19:24;;;;;;;13.35;11.07;;;14.30;99.90;;;;;;4891044;29;20045;-62
2023/08/06 02:21:49;;;;;;;12.27;11.02;;;14.20;99.90;;;;;;4889635;29;20057;-62
2023/08/06 02:24:15;;;;;;;14.10;11.38;;;14.30;99.90;;;;;;4889367;29;20075;-59
2023/08/06 02:26:40;;;;;;;13.80;11.65;;;14.20;99.90;;;;;;4890522;29;20068;-62
2023/08/06 02:29:06;;;;;;;12.20;10.93;;;14.30;99.90;;;;;;4890104;29;20079;-62
2023/08/06 02:31:31;;;;;;;15.55;11.52;;;14.20;99.90;;;;;;4890697;29;20056;-58
2023/08/06 02:33:58;;;;;;;12.57;11.27;;;14.20;99.90;;;;;;4889769;29;20060;-60
2023/08/06 02:36:24;;;;;;;12.32;11.00;;;14.30;99.90;;;;;;4889788;29;20507;-62
2023/08/06 02:38:50;;;;;;;13.00;10.63;;;14.40;99.90;;;;;;4890773;29;20143;-60
2023/08/06 02:41:15;;;;;;;12.10;10.90;;;14.30;99.90;;;;;;4890412;29;20506;-62
2023/08/06 02:43:41;;;;;;;11.88;10.55;;;14.40;99.90;;;;;;4890202;29;20494;-60
2023/08/06 02:46:06;;;;;;;14.40;11.50;;;14.30;99.90;;;;;;4889629;29;20120;-61
2023/08/06 02:48:32;;;;;;;11.68;10.48;;;14.30;99.90;;;;;;4889916;29;20092;-62
2023/08/06 02:51:01;;;;;;;11.63;10.43;;;14.30;99.90;;;;;;4889860;29;20045;-60
2023/08/06 02:53:27;;;;;;;12.02;10.75;;;14.30;99.90;;;;;;4889047;29;20496;-62
2023/08/06 02:55:53;;;;;;;13.50;11.00;;;14.30;99.90;;;;;;4890762;29;20100;-58
2023/08/06 02:58:22;;;;;;;12.10;10.90;;;14.30;99.90;;;;;;4889983;29;20552;-62
2023/08/06 03:01:02;;;;;;;14.82;10.93;;;14.40;99.90;;;;;;4890718;29;20061;-64
2023/08/06 03:03:29;;;;;;;12.15;10.80;;;14.40;99.90;;;;;;4877676;29;20053;-59
2023/08/06 03:05:55;;;;;;;11.90;10.52;;;14.30;99.90;;;;;;4889729;29;20087;-58
2023/08/06 03:08:23;;;;;;;12.38;10.15;;;14.30;99.90;;;;;;4889833;29;20333;-61
2023/08/06 03:10:50;;;;;;;11.85;10.02;;;14.30;99.90;;;;;;4878815;29;20045;-61
2023/08/06 03:13:16;;;;;;;13.63;10.57;;;14.40;99.90;;;;;;4870676;29;20049;-61
2023/08/06 03:15:42;;;;;;;11.70;10.50;;;14.40;99.90;;;;;;4871414;29;20057;-61
2023/08/06 03:18:08;;;;;;;12.50;11.20;;;14.30;99.90;;;;;;4870801;29;20045;-61
2023/08/06 03:20:34;;;;;;;16.63;11.57;;;14.20;99.90;;;;;;4875834;29;20504;-61
2023/08/06 03:22:59;;;;;;;13.80;11.60;;;14.30;99.90;;;;;;4889948;29;20052;-63
2023/08/06 03:25:25;;;;;;;13.80;11.82;;;14.30;99.90;;;;;;4889883;29;20052;-61
2023/08/06 03:27:51;;;;;;;13.88;11.90;;;14.20;99.90;;;;;;4904906;29;20063;-61
2023/08/06 03:30:16;;;;;;;14.63;12.40;;;14.30;99.90;;;;;;4889471;29;20064;-59
2023/08/06 03:32:42;;;;;;;13.65;12.25;;;14.20;99.90;;;;;;4889342;29;20492;-64
2023/08/06 03:35:07;;;;;;;14.50;13.00;;;14.20;99.90;;;;;;4888799;29;20056;-61
2023/08/06 03:37:33;;;;;;;14.57;13.07;;;14.20;99.90;;;;;;4893684;29;20084;-62
2023/08/06 03:39:59;;;;;;;15.23;12.90;;;14.20;99.90;;;;;;4893499;29;20045;-56
2023/08/06 03:42:24;;;;;;;14.23;12.73;;;14.20;99.90;;;;;;4893573;29;20051;-62
2023/08/06 03:44:50;;;;;;;14.75;12.13;;;14.20;99.90;;;;;;4893162;29;20088;-62
2023/08/06 03:47:15;;;;;;;15.75;12.80;;;14.10;99.90;;;;;;4892810;29;20040;-64
2023/08/06 03:49:41;;;;;;;14.20;12.73;;;14.20;99.90;;;;;;4892759;29;20048;-61
2023/08/06 03:52:07;;;;;;;14.55;12.90;;;14.20;99.90;;;;;;4892518;29;20061;-61
2023/08/06 03:54:33;;;;;;;15.07;12.73;;;14.20;99.90;;;;;;4894149;29;20048;-62
2023/08/06 03:56:58;;;;;;;14.70;12.05;;;14.10;99.90;;;;;;4892707;29;20101;-61
2023/08/06 03:59:24;;;;;;;14.30;12.77;;;14.20;99.90;;;;;;4893528;29;20124;-62
2023/08/06 04:01:49;;;;;;;12.90;11.60;;;14.20;99.90;;;;;;4891176;29;20436;-61
2023/08/06 04:04:15;;;;;;;16.17;12.73;;;14.20;99.90;;;;;;4892425;29;20055;-63
2023/08/06 04:06:41;;;;;;;15.70;12.90;;;14.20;99.90;;;;;;4893977;29;20084;-60
2023/08/06 04:09:06;;;;;;;14.40;12.52;;;14.20;99.90;;;;;;4894419;29;20036;-61
2023/08/06 04:11:32;;;;;;;14.77;12.82;;;14.20;99.90;;;;;;4894851;29;20140;-60
2023/08/06 04:13:58;;;;;;;17.45;12.25;;;14.10;99.90;;;;;;4891338;29;20308;-62
2023/08/06 04:16:23;;;;;;;16.15;12.30;;;14.10;99.90;;;;;;4894548;29;20080;-63
2023/08/06 04:18:49;;;;;;;17.83;12.48;;;14.10;99.90;;;;;;4893996;29;20067;-59
2023/08/06 04:21:14;;;;;;;13.48;11.63;;;14.10;99.90;;;;;;4894236;29;20052;-60
2023/08/06 04:23:40;;;;;;;13.60;12.18;;;14.10;99.90;;;;;;4894065;29;20080;-61
2023/08/06 04:26:06;;;;;;;15.20;12.68;;;14.20;99.90;;;;;;4894249;29;20045;-62
2023/08/06 04:28:31;;;;;;;14.00;12.32;;;14.10;99.90;;;;;;4886789;29;20041;-60
2023/08/06 04:30:58;;;;;;;18.17;11.75;;;14.20;99.90;;;;;;4889507;29;20063;-61
2023/08/06 04:33:24;;;;;;;13.43;11.88;;;14.10;99.90;;;;;;4874725;29;20088;-63
2023/08/06 04:35:55;;;;;;;14.00;12.32;;;14.20;99.90;;;;;;4875320;29;20084;-63
2023/08/06 04:38:21;;;;;;;14.05;12.00;;;14.20;99.90;;;;;;4875257;29;20434;-63
2023/08/06 04:40:46;;;;;;;14.38;11.98;;;14.20;99.90;;;;;;4892407;29;20044;-61
2023/08/06 04:43:12;;;;;;;15.98;12.20;;;14.10;99.90;;;;;;4893954;29;20116;-62
2023/08/06 04:45:37;;;;;;;13.93;12.23;;;14.30;99.90;;;;;;4893512;29;20526;-61
2023/08/06 04:48:03;;;;;;;16.77;11.57;;;14.30;99.90;;;;;;4892241;29;20053;-61
2023/08/06 04:50:29;;;;;;;12.15;10.93;;;14.30;99.90;;;;;;4894005;29;20373;-62
2023/08/06 04:52:55;;;;;;;12.98;11.10;;;14.40;99.90;;;;;;4893588;29;20051;-63
2023/08/06 04:55:20;;;;;;;13.00;11.18;;;14.40;99.90;;;;;;4893577;29;20048;-63
2023/08/06 04:57:47;;;;;;;11.25;10.02;;;14.40;99.90;;;;;;4893612;29;20051;-62
2023/08/06 05:00:12;;;;;;;13.45;9.98;;;14.60;99.90;;;;;;4893446;29;20040;-62
2023/08/06 05:02:38;;;;;;;10.85;9.75;;;14.60;99.90;;;;;;4891375;29;20508;-58
2023/08/06 05:05:04;;;;;;;12.90;9.50;;;14.50;99.90;;;;;;4881886;29;20520;-62
2023/08/06 05:07:30;;;;;;;12.20;9.63;;;14.50;99.90;;;;;;4874871;29;20048;-60
2023/08/06 05:09:56;;;;;;;13.60;10.68;;;14.50;99.90;;;;;;4874330;29;20500;-60
2023/08/06 05:12:21;;;;;;;10.27;9.10;;;14.50;99.90;;;;;;4879616;29;20128;-62
2023/08/06 05:14:47;;;;;;;11.95;9.20;;;14.60;99.90;;;;;;4893307;29;20052;-60
2023/08/06 05:17:12;;;;;;;12.52;8.88;;;14.60;99.90;;;;;;4892513;29;20052;-63
2023/08/06 05:19:38;;;;;;;11.43;10.07;;;14.50;99.90;;;;;;4893257;29;20079;-61
2023/08/06 05:22:04;;;;;;;10.45;9.35;;;14.50;99.90;;;;;;4875393;29;20053;-61
2023/08/06 05:24:29;;;;;;;10.43;9.27;;;14.60;99.90;;;;;;4874242;29;20056;-63
2023/08/06 05:26:55;;;;;;;12.60;9.52;;;14.60;99.90;;;;;;4879257;29;20048;-63
2023/08/06 05:29:20;;;;;;;11.98;9.07;;;14.60;99.90;;;;;;4893096;29;20136;-62
2023/08/06 05:31:46;;;;;;;10.00;8.70;;;14.70;99.90;;;;;;4892263;29;20078;-62
2023/08/06 05:34:12;;;;;;;11.43;9.32;;;14.70;99.90;;;;;;4892433;29;20078;-60
2023/08/06 05:36:37;;;;;;;12.20;9.43;;;14.70;99.90;;;;;;4892878;29;20100;-63
2023/08/06 05:39:03;;;;;;;11.65;8.60;;;14.80;99.90;;;;;;4892755;29;20049;-63
2023/08/06 05:41:29;;;;;;;10.98;8.88;;;14.90;99.90;;;;;;4892896;29;20053;-63
2023/08/06 05:43:54;;;;;;;9.20;8.25;;;15.00;99.90;;;;;;4892466;29;20091;-62
2023/08/06 05:46:20;;;;;;;8.65;7.57;;;15.40;99.90;;;;;;4892678;29;20029;-63
2023/08/06 05:48:46;;;;;;;10.27;7.93;;;15.90;99.90;;;;;;4892129;29;20103;-62
2023/08/06 05:51:13;;;;;;;9.85;8.35;;;16.10;99.90;;;;;;4892350;29;20057;-63
2023/08/06 05:53:38;;;;;;;9.00;8.02;;;16.10;99.90;;;;;;4892701;29;20456;-62
2023/08/06 05:56:04;;;;;;;9.05;7.97;;;16.00;99.90;;;;;;4886942;29;20123;-63
2023/08/06 05:58:30;;;;;;;13.23;8.50;;;15.80;99.90;;;;;;4884921;29;20077;-64
2023/08/06 06:00:56;;;;;;;9.43;8.40;;;15.70;99.90;;;;;;4892259;29;20576;-63
2023/08/06 06:03:22;;;;;;;9.00;8.07;;;15.70;99.90;;;;;;4891874;29;20048;-64
2023/08/06 06:05:47;;;;;;;10.00;8.40;;;15.60;99.90;;;;;;4892385;29;20376;-60
2023/08/06 06:08:13;;;;;;;11.40;8.50;;;15.60;99.90;;;;;;4891990;29;20177;-63
2023/08/06 06:10:38;;;;;;;9.30;8.30;;;15.60;99.90;;;;;;4892803;29;20404;-63
2023/08/06 06:13:04;;;;;;;10.27;8.25;;;15.60;99.90;;;;;;4892160;29;20052;-58
2023/08/06 06:15:30;;;;;;;9.77;8.45;;;15.60;99.90;;;;;;4892069;29;20048;-61
2023/08/06 06:17:56;;;;;;;10.65;9.00;;;15.60;99.90;;;;;;4891446;29;20412;-63
2023/08/06 06:20:22;;;;;;;10.80;9.15;;;15.60;99.90;;;;;;4892198;29;20048;-63
2023/08/06 06:22:47;;;;;;;11.43;9.15;;;15.70;99.90;;;;;;4891924;29;20053;-62
2023/08/06 06:25:13;;;;;;;12.48;9.38;;;15.70;99.90;;;;;;4891896;29;20055;-63
2023/08/06 06:27:38;;;;;;;11.52;9.38;;;15.70;99.90;;;;;;4892410;29;20049;-62
2023/08/06 06:30:05;;;;;;;10.80;9.70;;;15.70;99.90;;;;;;4892085;29;20059;-62
2023/08/06 06:32:30;;;;;;;11.70;9.27;;;15.70;99.90;;;;;;4891105;29;20053;-60
2023/08/06 06:34:56;;;;;;;10.13;9.00;;;15.60;99.90;;;;;;4891758;29;20083;-62
2023/08/06 06:37:21;;;;;;;11.57;9.27;;;15.60;99.90;;;;;;4891830;29;20135;-62
2023/08/06 06:39:47;;;;;;;10.98;9.48;;;15.60;99.90;;;;;;4891633;29;20044;-60
2023/08/06 06:42:14;;;;;;;10.20;9.18;;;15.70;99.90;;;;;;4892130;29;20055;-59
2023/08/06 06:44:40;;;;;;;9.93;8.93;;;15.80;99.90;;;;;;4891998;29;20059;-62
2023/08/06 06:47:06;;;;;;;11.70;9.05;;;15.80;99.90;;;;;;4891208;29;20253;-62
2023/08/06 06:49:31;;;;;;;10.48;9.07;;;15.90;99.90;;;;;;4891509;29;20041;-60
2023/08/06 06:51:57;;;;;;;11.38;9.95;;;16.00;99.90;;;;;;4890233;29;20080;-63
2023/08/06 06:54:23;;;;;;;10.35;9.30;;;16.00;99.90;;;;;;4891973;29;20449;-63
2023/08/06 06:56:48;;;;;;;10.85;9.23;;;16.00;99.90;;;;;;4891344;29;20048;-61
2023/08/06 06:59:14;;;;;;;10.48;9.40;;;16.10;99.90;;;;;;4891970;29;20112;-58
2023/08/06 07:01:39;;;;;;;10.85;9.30;;;16.10;99.90;;;;;;4891168;29;20412;-63
2023/08/06 07:04:05;;;;;;;10.70;9.57;;;16.10;99.90;;;;;;4891464;29;20086;-62
2023/08/06 07:06:31;;;;;;;10.50;9.40;;;16.10;99.90;;;;;;4890269;29;20058;-63
2023/08/06 07:08:57;;;;;;;10.50;9.50;;;16.10;99.90;;;;;;4891496;29;20056;-61
2023/08/06 07:11:22;;;;;;;9.75;8.73;;;16.30;99.90;;;;;;4893184;29;20045;-63
2023/08/06 07:13:55;;;;;;;11.45;8.75;;;16.40;99.90;;;;;;4895285;29;20123;-62
2023/08/06 07:16:21;;;;;;;10.45;9.35;;;16.40;99.90;;;;;;4894710;29;20128;-63
2023/08/06 07:18:46;;;;;;;9.80;8.82;;;16.70;99.90;;;;;;4895290;29;20135;-61
2023/08/06 07:21:12;;;;;;;11.20;8.70;;;16.90;99.90;;;;;;4895252;29;20044;-63
2023/08/06 07:23:38;;;;;;;9.50;8.57;;;17.20;99.90;;;;;;4895397;29;20464;-65
2023/08/06 07:26:03;;;;;;;8.77;7.88;;;17.40;99.90;;;;;;4895351;29;20148;-63
2023/08/06 07:28:29;;;;;;;9.73;8.32;;;17.60;99.90;;;;;;4894923;29;20040;-63
2023/08/06 07:30:54;;;;;;;9.13;8.20;;;17.60;99.90;;;;;;4895035;29;20547;-60
2023/08/06 07:33:20;;;;;;;9.00;7.90;;;17.80;99.90;;;;;;4894189;29;20049;-62
2023/08/06 07:35:46;;;;;;;8.98;8.07;;;18.00;99.90;;;;;;4895043;29;20108;-62
2023/08/06 07:38:11;;;;;;;10.93;8.27;;;18.10;99.90;;;;;;4895191;29;20067;-59
2023/08/06 07:40:37;;;;;;;11.95;8.50;;;18.10;99.90;;;;;;4895000;29;20052;-62
2023/08/06 07:43:03;;;;;;;9.63;8.23;;;18.20;99.90;;;;;;4894859;29;20060;-61
2023/08/06 07:45:33;;;;;;;9.45;8.55;;;18.20;99.90;;;;;;4894533;29;20060;-62
2023/08/06 07:47:59;;;;;;;8.75;7.88;;;18.30;99.90;;;;;;4888727;29;20052;-61
2023/08/06 07:50:25;;;;;;;7.75;6.90;;;18.30;99.90;;;;;;4886410;29;20049;-62
2023/08/06 07:52:50;;;;;;;9.02;7.28;;;18.50;99.90;;;;;;4894359;29;20044;-63
2023/08/06 07:55:16;;;;;;;9.30;7.53;;;18.60;99.90;;;;;;4894890;29;20505;-60
2023/08/06 07:57:41;;;;;;;7.55;6.75;;;18.90;99.90;;;;;;4894592;29;20053;-63
2023/08/06 08:00:09;;;;;;;8.98;7.07;;;19.40;99.90;;;;;;4908858;29;20514;-60
2023/08/06 08:02:34;;;;;;;10.70;6.20;;;19.80;99.90;;;;;;4893752;29;20525;-62
2023/08/06 08:05:00;;;;;;;7.22;6.13;;;20.00;99.90;;;;;;4894838;29;20075;-63
2023/08/06 08:07:28;;;;;;;7.13;5.93;;;19.90;99.90;;;;;;4894584;29;20240;-63
2023/08/06 08:09:54;;;;;;;7.88;5.80;;;19.70;99.90;;;;;;4908674;29;20059;-59
2023/08/06 08:12:19;;;;;;;6.20;5.60;;;19.70;99.90;;;;;;4894315;29;20412;-63
2023/08/06 08:14:45;;;;;;;9.27;6.07;;;19.80;99.90;;;;;;4894749;29;20056;-62
2023/08/06 08:17:11;;;;;;;6.97;6.03;;;20.20;99.90;;;;;;4892100;29;20040;-61
2023/08/06 08:19:37;;;;;;;6.90;6.18;;;20.50;99.90;;;;;;4894442;29;20068;-65
2023/08/06 08:22:03;;;;;;;8.25;6.47;;;20.80;99.90;;;;;;4893975;29;20391;-62
2023/08/06 08:24:30;;;;;;;8.43;6.07;;;21.00;99.90;;;;;;4894203;29;20048;-63
2023/08/06 08:26:56;;;;;;;9.10;5.95;;;21.40;99.90;;;;;;4894348;29;20040;-61
2023/08/06 08:29:22;;;;;;;7.93;6.30;;;21.50;99.90;;;;;;4889583;29;20483;-62
2023/08/06 08:31:51;;;;;;;7.00;5.75;;;21.40;99.90;;;;;;4889030;29;20407;-61
2023/08/06 08:34:17;;;;;;;6.78;5.60;;;21.30;99.90;;;;;;4892839;29;20070;-62
2023/08/06 08:36:46;;;;;;;9.45;5.72;;;21.10;99.90;;;;;;4893870;29;20075;-60
2023/08/06 08:39:12;;;;;;;6.53;4.57;;;21.10;99.90;;;;;;4892568;29;20120;-62
2023/08/06 08:41:38;;;;;;;9.13;5.32;;;21.20;99.90;;;;;;4891720;29;20116;-62
2023/08/06 08:44:09;;;;;;;5.43;4.63;;;21.40;99.90;;;;;;4893073;29;20514;-62
2023/08/06 08:46:38;;;;;;;8.95;4.60;;;21.50;99.90;;;;;;4889508;29;20408;-63
2023/08/06 08:49:04;;;;;;;10.50;5.40;;;21.60;99.90;;;;;;4890326;29;20048;-60
2023/08/06 08:51:31;;;;;;;7.07;4.57;;;21.60;99.90;;;;;;4890887;29;20081;-62
2023/08/06 08:53:57;;;;;;;4.78;3.95;;;21.70;99.90;;;;;;4883954;29;20139;-60
2023/08/06 08:56:23;;;;;;;9.38;3.65;;;22.00;99.90;;;;;;4883796;29;20542;-61
2023/08/06 08:58:49;;;;;;;4.85;3.70;;;22.20;99.90;;;;;;4880632;29;20079;-62
2023/08/06 09:01:15;;;;;;;6.55;4.35;;;22.50;99.90;;;;;;4893265;29;20045;-61
2023/08/06 09:03:43;;;;;;;5.88;3.55;;;22.60;99.90;;;;;;4883192;29;20056;-61
2023/08/06 09:06:11;;;;;;;4.47;3.83;;;22.80;99.90;;;;;;4892346;29;20053;-61
2023/08/06 09:08:46;;;;;;;4.00;3.20;;;22.90;99.90;;;;;;4893617;29;20104;-61
2023/08/06 09:11:13;;;;;;;4.03;2.75;;;22.90;99.90;;;;;;4893019;29;20059;-60
2023/08/06 09:13:38;;;;;;;3.40;2.70;;;23.00;99.90;;;;;;4893039;29;20072;-62
2023/08/06 09:16:04;;;;;;;3.28;2.35;;;23.10;99.90;;;;;;4892805;29;20492;-62
2023/08/06 09:18:31;;;;;;;3.70;2.67;;;23.30;99.90;;;;;;4893121;29;20564;-61
2023/08/06 09:20:57;;;;;;;3.88;2.45;;;23.50;99.90;;;;;;4893369;29;20079;-62
2023/08/06 09:23:30;;;;;;;3.50;2.30;;;23.60;99.90;;;;;;4893271;29;20048;-62
2023/08/06 09:25:57;;;;;;;2.33;1.80;;;23.80;99.90;;;;;;4893286;29;20053;-61
2023/08/06 09:28:24;;;;;;;3.30;2.10;;;24.00;99.90;;;;;;4893150;29;20059;-59
2023/08/06 09:30:50;;;;;;;3.83;2.05;;;24.10;99.90;;;;;;4892772;29;20040;-60
2023/08/06 09:33:19;;;;;;;2.50;1.80;;;24.30;99.90;;;;;;4891895;29;20099;-62
2023/08/06 09:35:46;;;;;;;6.20;1.90;;;24.40;99.90;;;;;;4892830;29;20092;-61
2023/08/06 09:38:13;;;;;;;4.25;2.00;;;24.60;99.90;;;;;;4892818;29;20084;-62
2023/08/06 09:40:39;;;;;;;3.55;1.98;;;24.60;99.90;;;;;;4892270;29;20052;-58
2023/08/06 09:43:05;;;;;;;2.90;1.90;;;24.50;99.90;;;;;;4892161;29;20037;-60
2023/08/06 09:45:38;;;;;;;3.10;1.85;;;24.60;99.90;;;;;;4892589;29;20437;-61
2023/08/06 09:48:05;;;;;;;4.95;1.80;;;24.80;99.90;;;;;;4889165;29;20051;-60
2023/08/06 09:50:38;;;;;;;3.25;1.45;;;24.90;99.90;;;;;;4892365;29;20050;-61
2023/08/06 09:53:05;;;;;;;3.50;1.63;;;25.00;99.90;;;;;;4892044;29;20052;-61
2023/08/06 09:55:32;;;;;;;2.92;1.40;;;25.20;99.90;;;;;;4888590;29;20049;-62
2023/08/06 09:57:59;;;;;;;3.20;1.50;;;25.20;99.90;;;;;;4880021;29;20511;-61
2023/08/06 10:00:24;;;;;;;3.67;1.40;;;25.30;99.90;;;;;;4882418;29;20041;-62
2023/08/06 10:02:54;;;;;;;1.88;1.27;;;25.30;99.90;;;;;;4882610;29;20104;-60
2023/08/06 10:05:21;;;;;;;5.85;1.50;;;25.30;99.90;;;;;;4880251;29;20080;-60
2023/08/06 10:07:48;;;;;;;4.18;1.58;;;25.20;99.70;;;;;;4892286;29;20136;-61
2023/08/06 10:10:13;;;;;;;3.33;1.30;;;25.30;99.30;;;;;;4892252;29;20056;-61
2023/08/06 10:12:54;;;;;;;2.40;1.40;;;25.30;98.80;;;;;;4892135;29;20044;-62
2023/08/06 10:15:24;;;;;;;3.15;1.50;;;25.40;97.10;;;;;;4892407;29;20048;-63
2023/08/06 10:17:52;;;;;;;2.88;1.35;;;25.50;97.80;;;;;;4891608;29;20053;-62
2023/08/06 10:20:21;;;;;;;2.20;1.40;;;25.50;97.70;;;;;;4891966;29;20041;-60
2023/08/06 10:23:00;;;;;;;3.78;1.50;;;25.50;97.70;;;;;;4892363;29;20066;-63
2023/08/06 10:25:30;;;;;;;2.83;1.60;;;25.30;96.90;;;;;;4891974;29;20041;-65
2023/08/06 10:27:56;;;;;;;4.57;1.60;;;25.30;97.80;;;;;;4891854;29;20080;-63
2023/08/06 10:30:30;;;;;;;2.88;1.60;;;25.20;97.80;;;;;;4892265;29;20124;-60
2023/08/06 10:32:57;;;;;;;4.13;1.50;;;25.10;96.80;;;;;;4891181;29;20048;-61
2023/08/06 10:35:31;;;;;;;2.47;1.60;;;25.00;97.70;;;;;;4892015;29;20489;-62
2023/08/06 10:38:05;;;;;;;2.42;1.50;;;25.20;97.60;;;;;;4874450;29;20057;-62
2023/08/06 10:40:32;;;;;;;3.28;1.48;;;25.40;97.10;;;;;;4891957;29;20052;-62
2023/08/06 10:43:02;;;;;;;3.08;1.65;;;25.40;96.80;;;;;;4891665;29;20079;-61
2023/08/06 10:45:31;;;;;;;2.72;1.70;;;25.40;95.70;;;;;;4891178;29;20396;-61
2023/08/06 10:47:57;;;;;;;3.15;1.70;;;25.40;97.10;;;;;;4891533;29;20059;-61
2023/08/06 10:50:24;;;;;;;2.25;1.42;;;25.50;97.10;;;;;;4891882;29;20045;-62
2023/08/06 10:52:50;;;;;;;3.20;1.65;;;25.60;97.00;;;;;;4891322;29;20104;-62
2023/08/06 10:55:27;;;;;;;2.95;1.75;;;25.90;96.80;;;;;;4882551;29;20057;-62
2023/08/06 10:57:54;;;;;;;3.17;1.63;;;25.80;96.20;;;;;;4883361;29;20049;-62
2023/08/06 11:00:21;;;;;;;3.33;1.80;;;25.90;96.80;;;;;;4891682;29;20045;-61
2023/08/06 11:02:48;;;;;;;2.33;1.50;;;26.10;96.50;;;;;;4874191;29;20097;-60
2023/08/06 11:05:15;;;;;;;3.58;1.77;;;26.30;96.80;;;;;;4872793;29;20404;-60
2023/08/06 11:07:40;;;;;;;2.83;1.60;;;26.40;96.90;;;;;;4872967;29;20069;-60
2023/08/06 11:10:11;;;;;;;3.83;1.70;;;26.50;97.00;;;;;;4872815;29;20429;-62
2023/08/06 11:12:37;;;;;;;2.67;1.75;;;26.60;96.40;;;;;;4888020;29;20057;-63
2023/08/06 11:15:04;;;;;;;4.30;1.80;;;26.70;96.60;;;;;;4891365;29;20051;-61
2023/08/06 11:17:31;;;;;;;4.15;1.67;;;26.70;96.30;;;;;;4890860;29;20041;-62
2023/08/06 11:20:01;;;;;;;5.18;1.67;;;26.70;96.30;;;;;;4879880;29;20063;-61
2023/08/06 11:22:27;;;;;;;2.47;1.40;;;26.80;95.40;;;;;;4887171;29;20056;-62
2023/08/06 11:24:54;;;;;;;2.05;1.42;;;26.70;96.10;;;;;;4891600;29;20392;-62
2023/08/06 11:27:19;;;;;;;2.63;1.52;;;26.80;96.10;;;;;;4891281;29;20053;-62
2023/08/06 11:29:45;;;;;;;2.83;1.65;;;26.90;96.00;;;;;;4890898;29;20041;-62
2023/08/06 11:32:12;;;;;;;2.80;1.60;;;26.90;95.90;;;;;;4890627;29;20045;-62
2023/08/06 11:34:38;;;;;;;2.63;1.65;;;27.00;95.90;;;;;;4878503;29;20065;-62
2023/08/06 11:37:05;;;;;;;2.45;1.77;;;27.10;95.80;;;;;;4872431;29;20048;-62
2023/08/06 11:39:34;;;;;;;3.33;1.70;;;27.10;95.40;;;;;;4873106;29;20072;-64
2023/08/06 11:42:02;;;;;;;2.13;1.40;;;27.00;95.30;;;;;;4872362;29;20081;-62
2023/08/06 11:44:33;;;;;;;2.55;1.60;;;27.00;95.30;;;;;;4872629;29;20179;-61
2023/08/06 11:47:01;;;;;;;1.65;1.35;;;27.00;94.80;;;;;;4872223;29;20449;-60
2023/08/06 11:49:47;;;;;;;2.40;1.65;;;26.90;94.70;;;;;;4889576;29;20045;-62
2023/08/06 11:52:20;;;;;;;2.17;1.55;;;26.80;94.10;;;;;;4891229;29;20053;-61
2023/08/06 11:54:48;;;;;;;2.03;1.45;;;26.80;94.20;;;;;;4891300;29;20055;-60
2023/08/06 11:57:15;;;;;;;2.78;1.42;;;26.80;94.70;;;;;;4892089;29;20100;-61
2023/08/06 11:59:40;;;;;;;3.63;1.67;;;26.80;94.70;;;;;;4893285;29;20428;-63
2023/08/06 12:02:10;;;;;;;3.35;1.40;;;26.80;94.80;;;;;;4893821;29;20049;-61
2023/08/06 12:05:02;;;;;;;1.90;1.33;;;26.80;94.70;;;;;;4891586;29;20060;-61
2023/08/06 12:07:32;;;;;;;1.80;1.20;;;26.70;95.10;;;;;;4892586;29;20044;-59
2023/08/06 12:09:58;;;;;;;2.47;1.55;;;26.80;95.00;;;;;;4893458;29;20064;-61
2023/08/06 12:12:24;;;;;;;3.95;1.40;;;26.80;94.70;;;;;;4894491;29;20044;-61
2023/08/06 12:14:50;;;;;;;2.60;1.40;;;26.70;94.80;;;;;;4894340;29;20048;-61
2023/08/06 12:17:15;;;;;;;5.93;1.33;;;26.70;95.00;;;;;;4893260;29;20396;-61
2023/08/06 12:19:41;;;;;;;2.15;1.38;;;26.60;95.10;;;;;;4894095;29;20135;-60
2023/08/06 12:22:07;;;;;;;2.97;1.67;;;26.50;95.20;;;;;;4886199;29;20049;-61
2023/08/06 12:24:32;;;;;;;2.13;1.42;;;26.30;95.50;;;;;;4890196;29;20045;-61
2023/08/06 12:26:58;;;;;;;4.05;1.45;;;26.30;95.70;;;;;;4893991;29;20045;-59
2023/08/06 12:29:25;;;;;;;4.40;1.70;;;26.30;95.80;;;;;;4894106;29;20049;-61
2023/08/06 12:31:51;;;;;;;2.50;1.35;;;26.50;95.90;;;;;;4893125;29;20067;-61
2023/08/06 12:34:16;;;;;;;3.35;1.30;;;26.50;95.50;;;;;;4893298;29;20057;-62
2023/08/06 12:36:42;;;;;;;1.73;1.27;;;26.50;95.80;;;;;;4893858;29;20048;-59